createdAt,value
2017-05-29T00:00:14.672Z,20.29
2017-05-29T00:00:55.170Z,20.31
2017-05-29T00:01:35.703Z,20.33
2017-05-29T00:02:16.250Z,20.23
2017-05-29T00:02:56.783Z,20.23
2017-05-29T00:03:37.325Z,20.21
2017-05-29T00:04:17.863Z,20.24
2017-05-29T00:04:58.402Z,20.2
2017-05-29T00:05:38.953Z,20.2
2017-05-29T00:06:19.497Z,20.17
2017-05-29T00:07:00.039Z,20.18
2017-05-29T00:07:40.577Z,20.1
2017-05-29T00:08:21.123Z,20.21
2017-05-29T00:09:01.668Z,20.21
2017-05-29T00:09:42.210Z,20.11
2017-05-29T00:10:22.753Z,20.14
2017-05-29T00:11:03.301Z,20.11
2017-05-29T00:11:43.836Z,20.08
2017-05-29T00:12:24.380Z,20.02
2017-05-29T00:13:04.912Z,20.1
2017-05-29T00:13:45.459Z,20.01
2017-05-29T00:14:26.002Z,19.96
2017-05-29T00:15:06.549Z,19.99
2017-05-29T00:15:47.118Z,20.05
2017-05-29T00:16:27.649Z,20.03
2017-05-29T00:17:08.236Z,20.03
2017-05-29T00:17:48.712Z,20.03
2017-05-29T00:18:29.244Z,20.01
2017-05-29T00:19:09.793Z,19.88
2017-05-29T00:19:50.304Z,20.01
2017-05-29T00:20:30.846Z,19.88
2017-05-29T00:21:11.386Z,19.86
2017-05-29T00:21:51.910Z,19.86
2017-05-29T00:22:32.439Z,19.92
2017-05-29T00:23:12.976Z,19.86
2017-05-29T00:23:53.518Z,19.84
2017-05-29T00:24:34.052Z,19.73
2017-05-29T00:25:14.599Z,19.8
2017-05-29T00:25:55.141Z,19.77
2017-05-29T00:26:35.678Z,19.83
2017-05-29T00:27:16.216Z,19.84
2017-05-29T00:27:56.748Z,19.78
2017-05-29T00:28:37.296Z,19.77
2017-05-29T00:29:17.837Z,19.77
2017-05-29T00:29:58.378Z,19.77
2017-05-29T00:30:38.943Z,19.8
2017-05-29T00:31:19.442Z,19.76
2017-05-29T00:31:59.993Z,19.77
2017-05-29T00:32:40.524Z,19.73
2017-05-29T00:33:21.049Z,19.74
2017-05-29T00:34:01.579Z,19.76
2017-05-29T00:34:42.119Z,19.69
2017-05-29T00:35:22.644Z,19.73
2017-05-29T00:36:03.177Z,19.71
2017-05-29T00:36:43.708Z,19.69
2017-05-29T00:37:24.249Z,19.71
2017-05-29T00:38:04.793Z,19.66
2017-05-29T00:38:45.319Z,19.69
2017-05-29T00:39:25.867Z,19.73
2017-05-29T00:40:06.415Z,19.71
2017-05-29T00:40:46.964Z,19.62
2017-05-29T00:41:27.503Z,19.63
2017-05-29T00:42:08.046Z,19.62
2017-05-29T00:42:48.593Z,19.65
2017-05-29T00:43:29.137Z,19.68
2017-05-29T00:44:09.672Z,19.68
2017-05-29T00:44:50.210Z,19.54
2017-05-29T00:45:30.759Z,19.58
2017-05-29T00:46:11.292Z,19.56
2017-05-29T00:46:51.842Z,19.55
2017-05-29T00:47:32.373Z,19.56
2017-05-29T00:48:12.910Z,19.62
2017-05-29T00:48:53.449Z,19.58
2017-05-29T00:49:33.986Z,19.56
2017-05-29T00:50:14.533Z,19.55
2017-05-29T00:50:55.065Z,19.59
2017-05-29T00:51:35.581Z,19.59
2017-05-29T00:52:16.115Z,19.54
2017-05-29T00:52:56.659Z,19.5
2017-05-29T00:53:37.217Z,19.51
2017-05-29T00:54:17.740Z,19.48
2017-05-29T00:54:58.251Z,19.5
2017-05-29T00:55:38.797Z,19.48
2017-05-29T00:56:19.347Z,19.46
2017-05-29T00:56:59.881Z,19.41
2017-05-29T00:57:40.418Z,19.4
2017-05-29T00:58:20.957Z,19.4
2017-05-29T00:59:01.491Z,19.4
2017-05-29T00:59:42.034Z,19.43
2017-05-29T01:00:22.576Z,19.37
2017-05-29T01:01:03.122Z,19.46
2017-05-29T01:01:43.672Z,19.47
2017-05-29T01:02:24.206Z,19.4
2017-05-29T01:03:04.716Z,19.4
2017-05-29T01:03:45.253Z,19.39
2017-05-29T01:04:25.799Z,19.4
2017-05-29T01:05:06.332Z,19.43
2017-05-29T01:05:46.863Z,19.36
2017-05-29T01:06:27.389Z,19.46
2017-05-29T01:07:07.943Z,19.41
2017-05-29T01:07:48.488Z,19.46
2017-05-29T01:08:29.033Z,19.43
2017-05-29T01:09:09.575Z,19.4
2017-05-29T01:09:50.123Z,19.41
2017-05-29T01:10:30.668Z,19.37
2017-05-29T01:11:11.213Z,19.44
2017-05-29T01:11:51.753Z,19.41
2017-05-29T01:12:32.286Z,19.46
2017-05-29T01:13:12.835Z,19.43
2017-05-29T01:13:53.380Z,19.46
2017-05-29T01:14:33.941Z,19.4
2017-05-29T01:15:14.467Z,19.46
2017-05-29T01:15:55.009Z,19.43
2017-05-29T01:16:35.547Z,19.44
2017-05-29T01:17:16.090Z,19.43
2017-05-29T01:17:56.610Z,19.41
2017-05-29T01:18:37.131Z,19.37
2017-05-29T01:19:17.663Z,19.36
2017-05-29T01:19:58.206Z,19.4
2017-05-29T01:20:38.754Z,19.39
2017-05-29T01:21:19.306Z,19.4
2017-05-29T01:21:59.854Z,19.33
2017-05-29T01:22:40.391Z,19.43
2017-05-29T01:23:20.936Z,19.23
2017-05-29T01:24:01.488Z,19.23
2017-05-29T01:24:42.029Z,19.26
2017-05-29T01:25:22.569Z,19.37
2017-05-29T01:26:03.103Z,19.31
2017-05-29T01:26:43.649Z,19.32
2017-05-29T01:27:24.185Z,19.37
2017-05-29T01:28:04.822Z,19.32
2017-05-29T01:28:45.376Z,19.4
2017-05-29T01:29:25.928Z,19.29
2017-05-29T01:30:06.468Z,19.28
2017-05-29T01:30:47.020Z,19.23
2017-05-29T01:31:27.574Z,19.39
2017-05-29T01:32:08.121Z,19.28
2017-05-29T01:32:48.666Z,19.41
2017-05-29T01:33:29.216Z,19.22
2017-05-29T01:34:09.762Z,19.36
2017-05-29T01:34:50.307Z,19.36
2017-05-29T01:35:30.833Z,19.39
2017-05-29T01:36:11.380Z,19.43
2017-05-29T01:36:51.918Z,19.44
2017-05-29T01:37:32.444Z,19.41
2017-05-29T01:38:12.991Z,19.41
2017-05-29T01:38:53.528Z,19.41
2017-05-29T01:39:34.052Z,19.39
2017-05-29T01:40:14.610Z,19.43
2017-05-29T01:40:55.158Z,19.43
2017-05-29T01:41:35.703Z,19.4
2017-05-29T01:42:16.233Z,19.41
2017-05-29T01:42:56.768Z,19.46
2017-05-29T01:43:37.299Z,19.37
2017-05-29T01:44:17.847Z,19.43
2017-05-29T01:44:58.368Z,19.41
2017-05-29T01:45:38.896Z,19.41
2017-05-29T01:46:19.420Z,19.44
2017-05-29T01:46:59.955Z,19.5
2017-05-29T01:47:40.501Z,19.44
2017-05-29T01:48:21.036Z,19.54
2017-05-29T01:49:01.561Z,19.48
2017-05-29T01:49:42.105Z,19.51
2017-05-29T01:50:22.652Z,19.59
2017-05-29T01:51:03.181Z,19.55
2017-05-29T01:51:43.721Z,19.55
2017-05-29T01:52:24.268Z,19.55
2017-05-29T01:53:04.810Z,19.56
2017-05-29T01:53:45.359Z,19.63
2017-05-29T01:54:25.894Z,19.62
2017-05-29T01:55:06.437Z,19.54
2017-05-29T01:55:46.972Z,19.48
2017-05-29T01:56:27.524Z,19.55
2017-05-29T01:57:08.066Z,19.58
2017-05-29T01:57:48.617Z,19.59
2017-05-29T01:58:29.169Z,19.58
2017-05-29T01:59:09.690Z,19.63
2017-05-29T01:59:50.219Z,19.56
2017-05-29T02:00:30.746Z,19.51
2017-05-29T02:01:11.293Z,19.66
2017-05-29T02:01:51.845Z,19.62
2017-05-29T02:02:32.381Z,19.59
2017-05-29T02:03:12.929Z,19.62
2017-05-29T02:03:53.475Z,19.63
2017-05-29T02:04:34.004Z,19.56
2017-05-29T02:05:14.529Z,19.61
2017-05-29T02:05:55.058Z,19.56
2017-05-29T02:06:35.617Z,19.66
2017-05-29T02:07:16.163Z,19.58
2017-05-29T02:07:56.701Z,19.65
2017-05-29T02:08:37.246Z,19.58
2017-05-29T02:09:17.761Z,19.65
2017-05-29T02:09:58.299Z,19.63
2017-05-29T02:10:38.840Z,19.73
2017-05-29T02:11:19.376Z,19.68
2017-05-29T02:11:59.903Z,19.73
2017-05-29T02:12:40.446Z,19.63
2017-05-29T02:13:20.990Z,19.73
2017-05-29T02:14:01.531Z,19.69
2017-05-29T02:14:42.055Z,19.65
2017-05-29T02:15:22.582Z,19.68
2017-05-29T02:16:03.120Z,19.73
2017-05-29T02:16:43.659Z,19.68
2017-05-29T02:17:24.207Z,19.66
2017-05-29T02:18:04.733Z,19.68
2017-05-29T02:18:45.288Z,19.73
2017-05-29T02:19:25.800Z,19.68
2017-05-29T02:20:06.342Z,19.69
2017-05-29T02:20:46.883Z,19.74
2017-05-29T02:21:27.419Z,19.78
2017-05-29T02:22:07.930Z,19.77
2017-05-29T02:22:48.449Z,19.68
2017-05-29T02:23:28.996Z,19.77
2017-05-29T02:24:09.534Z,19.74
2017-05-29T02:24:50.082Z,19.78
2017-05-29T02:25:30.625Z,19.77
2017-05-29T02:26:11.161Z,19.74
2017-05-29T02:26:51.706Z,19.68
2017-05-29T02:27:32.258Z,19.71
2017-05-29T02:28:12.797Z,19.76
2017-05-29T02:28:53.331Z,19.74
2017-05-29T02:29:33.856Z,19.77
2017-05-29T02:30:14.408Z,19.77
2017-05-29T02:30:54.942Z,19.78
2017-05-29T02:31:35.481Z,19.77
2017-05-29T02:32:16.017Z,19.74
2017-05-29T02:32:56.555Z,19.77
2017-05-29T02:33:37.102Z,19.78
2017-05-29T02:34:17.648Z,19.77
2017-05-29T02:34:58.193Z,19.8
2017-05-29T02:35:38.739Z,19.74
2017-05-29T02:36:19.282Z,19.74
2017-05-29T02:36:59.819Z,19.78
2017-05-29T02:37:40.369Z,19.77
2017-05-29T02:38:20.911Z,19.8
2017-05-29T02:39:01.449Z,19.74
2017-05-29T02:39:41.988Z,19.78
2017-05-29T02:40:22.529Z,19.74
2017-05-29T02:41:03.068Z,19.8
2017-05-29T02:41:43.607Z,19.8
2017-05-29T02:42:24.158Z,19.8
2017-05-29T02:43:04.671Z,19.84
2017-05-29T02:43:45.208Z,19.78
2017-05-29T02:44:25.726Z,19.77
2017-05-29T02:45:06.248Z,19.78
2017-05-29T02:45:46.788Z,19.76
2017-05-29T02:46:27.323Z,19.74
2017-05-29T02:47:07.856Z,19.91
2017-05-29T02:47:48.396Z,19.77
2017-05-29T02:48:28.948Z,19.8
2017-05-29T02:49:09.498Z,19.8
2017-05-29T02:49:50.041Z,19.8
2017-05-29T02:50:30.580Z,19.87
2017-05-29T02:51:11.129Z,19.87
2017-05-29T02:51:51.672Z,19.92
2017-05-29T02:52:32.218Z,19.94
2017-05-29T02:53:12.750Z,19.87
2017-05-29T02:53:53.299Z,19.77
2017-05-29T02:54:33.834Z,19.77
2017-05-29T02:55:14.381Z,19.74
2017-05-29T02:55:54.905Z,19.8
2017-05-29T02:56:35.445Z,19.81
2017-05-29T02:57:15.986Z,19.76
2017-05-29T02:57:56.525Z,19.78
2017-05-29T02:58:37.061Z,19.83
2017-05-29T02:59:17.589Z,19.83
2017-05-29T02:59:58.140Z,19.76
2017-05-29T03:00:38.681Z,19.78
2017-05-29T03:01:19.237Z,19.8
2017-05-29T03:01:59.772Z,19.81
2017-05-29T03:02:40.321Z,19.78
2017-05-29T03:03:20.872Z,19.77
2017-05-29T03:04:01.422Z,19.78
2017-05-29T03:04:41.955Z,19.77
2017-05-29T03:05:22.492Z,19.76
2017-05-29T03:06:03.040Z,19.84
2017-05-29T03:06:43.581Z,19.77
2017-05-29T03:07:24.125Z,19.81
2017-05-29T03:08:04.664Z,19.83
2017-05-29T03:08:45.204Z,19.83
2017-05-29T03:09:25.734Z,19.8
2017-05-29T03:10:06.282Z,19.83
2017-05-29T03:10:46.828Z,19.78
2017-05-29T03:11:27.371Z,19.76
2017-05-29T03:12:07.920Z,19.8
2017-05-29T03:12:48.473Z,19.83
2017-05-29T03:13:29.010Z,19.8
2017-05-29T03:14:09.565Z,19.77
2017-05-29T03:14:50.124Z,19.86
2017-05-29T03:15:30.660Z,19.74
2017-05-29T03:16:11.195Z,19.78
2017-05-29T03:16:51.721Z,19.77
2017-05-29T03:17:32.259Z,19.84
2017-05-29T03:18:12.889Z,19.81
2017-05-29T03:18:53.438Z,19.78
2017-05-29T03:19:46.225Z,19.83
2017-05-29T03:20:43.912Z,19.78
2017-05-29T03:21:43.611Z,19.83
2017-05-29T03:22:31.590Z,19.81
2017-05-29T03:23:17.376Z,19.73
2017-05-29T03:24:14.255Z,19.8
2017-05-29T03:25:15.203Z,19.78
2017-05-29T03:26:20.111Z,19.74
2017-05-29T03:27:58.933Z,19.74
2017-05-29T03:28:57.274Z,19.77
2017-05-29T03:30:39.480Z,19.91
2017-05-29T03:31:40.343Z,19.77
2017-05-29T03:32:29.030Z,19.78
2017-05-29T03:33:20.026Z,19.78
2017-05-29T03:34:09.666Z,19.78
2017-05-29T03:35:06.353Z,19.78
2017-05-29T03:35:55.859Z,19.8
2017-05-29T03:36:57.133Z,19.8
2017-05-29T03:37:59.926Z,19.78
2017-05-29T03:39:02.758Z,19.76
2017-05-29T03:40:12.107Z,19.74
2017-05-29T03:41:11.573Z,19.73
2017-05-29T03:42:11.093Z,19.76
2017-05-29T03:43:05.188Z,19.74
2017-05-29T03:44:23.929Z,19.76
2017-05-29T03:46:21.816Z,19.78
2017-05-29T03:47:02.350Z,19.77
2017-05-29T03:47:42.899Z,19.71
2017-05-29T03:48:23.445Z,19.71
2017-05-29T03:49:03.982Z,19.69
2017-05-29T03:49:44.547Z,19.76
2017-05-29T03:50:25.126Z,19.76
2017-05-29T03:51:05.673Z,19.69
2017-05-29T03:51:46.211Z,19.76
2017-05-29T03:52:26.749Z,19.78
2017-05-29T03:53:07.292Z,19.71
2017-05-29T03:53:47.828Z,19.8
2017-05-29T03:54:28.357Z,19.68
2017-05-29T03:55:08.888Z,19.78
2017-05-29T03:55:49.423Z,19.65
2017-05-29T03:56:29.954Z,19.74
2017-05-29T03:57:10.480Z,19.77
2017-05-29T03:57:51.023Z,19.76
2017-05-29T03:58:31.570Z,19.74
2017-05-29T03:59:12.111Z,19.71
2017-05-29T03:59:52.655Z,19.68
2017-05-29T04:00:33.213Z,19.68
2017-05-29T04:01:13.764Z,19.66
2017-05-29T04:01:54.298Z,19.65
2017-05-29T04:02:34.819Z,19.73
2017-05-29T04:03:15.375Z,19.73
2017-05-29T04:03:55.917Z,19.74
2017-05-29T04:04:36.451Z,19.66
2017-05-29T04:05:16.994Z,19.71
2017-05-29T04:05:57.542Z,19.63
2017-05-29T04:06:38.091Z,19.66
2017-05-29T04:07:18.635Z,19.66
2017-05-29T04:07:59.178Z,19.66
2017-05-29T04:08:39.727Z,19.73
2017-05-29T04:09:20.274Z,19.68
2017-05-29T04:10:00.867Z,19.74
2017-05-29T04:10:41.410Z,19.73
2017-05-29T04:11:21.954Z,19.68
2017-05-29T04:12:02.505Z,19.73
2017-05-29T04:12:43.054Z,19.73
2017-05-29T04:13:23.606Z,19.74
2017-05-29T04:14:04.153Z,19.69
2017-05-29T04:14:44.698Z,19.77
2017-05-29T04:15:25.240Z,19.68
2017-05-29T04:16:05.790Z,19.78
2017-05-29T04:16:46.334Z,19.66
2017-05-29T04:17:26.859Z,19.77
2017-05-29T04:18:07.397Z,19.77
2017-05-29T04:18:47.931Z,19.71
2017-05-29T04:19:28.473Z,19.65
2017-05-29T04:20:09.003Z,19.73
2017-05-29T04:20:49.536Z,19.68
2017-05-29T04:21:30.073Z,19.77
2017-05-29T04:22:10.615Z,19.69
2017-05-29T04:22:51.135Z,19.73
2017-05-29T04:23:31.679Z,19.73
2017-05-29T04:24:12.212Z,19.73
2017-05-29T04:24:52.763Z,19.73
2017-05-29T04:25:33.301Z,19.8
2017-05-29T04:26:13.839Z,19.78
2017-05-29T04:26:54.377Z,19.76
2017-05-29T04:27:34.907Z,19.78
2017-05-29T04:28:15.438Z,19.81
2017-05-29T04:28:55.993Z,19.8
2017-05-29T04:29:36.552Z,19.81
2017-05-29T04:30:17.087Z,19.8
2017-05-29T04:30:57.623Z,19.81
2017-05-29T04:31:38.173Z,19.78
2017-05-29T04:32:18.716Z,19.74
2017-05-29T04:32:59.255Z,19.8
2017-05-29T04:33:39.800Z,19.73
2017-05-29T04:34:20.332Z,19.84
2017-05-29T04:35:00.874Z,19.8
2017-05-29T04:35:41.417Z,19.91
2017-05-29T04:36:21.963Z,19.78
2017-05-29T04:37:02.496Z,19.92
2017-05-29T04:37:43.051Z,19.92
2017-05-29T04:38:23.595Z,19.94
2017-05-29T04:39:04.139Z,19.83
2017-05-29T04:39:44.683Z,19.81
2017-05-29T04:40:25.237Z,19.83
2017-05-29T04:41:05.783Z,19.87
2017-05-29T04:41:46.334Z,19.88
2017-05-29T04:42:26.878Z,19.84
2017-05-29T04:43:07.418Z,19.84
2017-05-29T04:43:47.963Z,19.84
2017-05-29T04:44:28.490Z,19.88
2017-05-29T04:45:09.032Z,19.86
2017-05-29T04:45:49.584Z,19.91
2017-05-29T04:46:30.128Z,19.88
2017-05-29T04:47:10.665Z,19.88
2017-05-29T04:47:51.210Z,19.86
2017-05-29T04:48:31.755Z,19.87
2017-05-29T04:49:12.297Z,19.94
2017-05-29T04:49:52.841Z,19.84
2017-05-29T04:50:33.380Z,19.92
2017-05-29T04:51:13.923Z,19.87
2017-05-29T04:51:54.449Z,19.88
2017-05-29T04:52:34.987Z,19.91
2017-05-29T04:53:15.534Z,19.99
2017-05-29T04:53:56.073Z,19.92
2017-05-29T04:54:36.613Z,19.99
2017-05-29T04:55:17.154Z,19.99
2017-05-29T04:55:57.700Z,20.01
2017-05-29T04:56:38.259Z,20.05
2017-05-29T04:57:18.798Z,20.03
2017-05-29T04:57:59.346Z,19.96
2017-05-29T04:58:39.896Z,20.01
2017-05-29T04:59:20.437Z,20.1
2017-05-29T05:00:00.983Z,20.08
2017-05-29T05:00:41.517Z,20.11
2017-05-29T05:01:22.063Z,20.13
2017-05-29T05:02:02.581Z,20.17
2017-05-29T05:02:43.126Z,20.17
2017-05-29T05:03:23.662Z,20.16
2017-05-29T05:04:04.206Z,20.21
2017-05-29T05:04:44.754Z,20.21
2017-05-29T05:05:25.290Z,20.14
2017-05-29T05:06:05.835Z,20.08
2017-05-29T05:06:46.382Z,20.2
2017-05-29T05:07:26.923Z,20.17
2017-05-29T05:08:07.467Z,20.17
2017-05-29T05:08:48.000Z,20.24
2017-05-29T05:09:28.537Z,20.2
2017-05-29T05:10:09.064Z,20.23
2017-05-29T05:10:49.608Z,20.21
2017-05-29T05:11:30.157Z,20.32
2017-05-29T05:12:10.702Z,20.21
2017-05-29T05:12:51.239Z,20.31
2017-05-29T05:13:31.778Z,20.31
2017-05-29T05:14:12.316Z,20.35
2017-05-29T05:14:52.839Z,20.28
2017-05-29T05:15:33.387Z,20.29
2017-05-29T05:16:13.919Z,20.31
2017-05-29T05:16:54.452Z,20.33
2017-05-29T05:17:34.991Z,20.33
2017-05-29T05:18:15.527Z,20.36
2017-05-29T05:18:56.075Z,20.42
2017-05-29T05:19:36.611Z,20.47
2017-05-29T05:20:17.155Z,20.48
2017-05-29T05:20:57.698Z,20.48
2017-05-29T05:21:38.242Z,20.47
2017-05-29T05:22:18.794Z,20.47
2017-05-29T05:22:59.339Z,20.51
2017-05-29T05:23:39.865Z,20.47
2017-05-29T05:24:20.411Z,20.5
2017-05-29T05:25:00.957Z,20.5
2017-05-29T05:25:41.505Z,20.55
2017-05-29T05:26:22.051Z,20.5
2017-05-29T05:27:02.579Z,20.55
2017-05-29T05:27:43.120Z,20.51
2017-05-29T05:28:23.650Z,20.55
2017-05-29T05:29:04.208Z,20.54
2017-05-29T05:29:44.750Z,20.54
2017-05-29T05:30:25.290Z,20.58
2017-05-29T05:31:05.826Z,20.62
2017-05-29T05:31:46.359Z,20.64
2017-05-29T05:32:26.906Z,20.66
2017-05-29T05:33:07.449Z,20.69
2017-05-29T05:33:47.979Z,20.79
2017-05-29T05:34:28.585Z,20.76
2017-05-29T05:35:09.123Z,20.72
2017-05-29T05:35:49.654Z,20.72
2017-05-29T05:36:30.199Z,20.84
2017-05-29T05:37:10.729Z,20.8
2017-05-29T05:37:51.274Z,20.89
2017-05-29T05:38:31.810Z,20.85
2017-05-29T05:39:12.355Z,20.94
2017-05-29T05:39:52.900Z,20.88
2017-05-29T05:40:33.443Z,20.89
2017-05-29T05:41:13.987Z,20.88
2017-05-29T05:41:54.532Z,20.87
2017-05-29T05:42:35.073Z,20.88
2017-05-29T05:43:15.623Z,20.89
2017-05-29T05:43:56.181Z,20.97
2017-05-29T05:44:36.722Z,20.94
2017-05-29T05:45:17.270Z,20.97
2017-05-29T05:45:57.809Z,20.95
2017-05-29T05:46:38.348Z,20.99
2017-05-29T05:47:18.886Z,20.94
2017-05-29T05:47:59.424Z,20.98
2017-05-29T05:48:39.967Z,20.98
2017-05-29T05:49:20.506Z,21.1
2017-05-29T05:50:01.048Z,21.09
2017-05-29T05:50:41.590Z,21.04
2017-05-29T05:51:22.354Z,21.09
2017-05-29T05:52:03.097Z,21.14
2017-05-29T05:52:43.637Z,21.12
2017-05-29T05:53:24.180Z,21.17
2017-05-29T05:54:04.723Z,21.22
2017-05-29T05:54:45.240Z,21.13
2017-05-29T05:55:25.783Z,21.21
2017-05-29T05:56:06.322Z,21.21
2017-05-29T05:56:46.870Z,21.19
2017-05-29T05:57:27.412Z,21.21
2017-05-29T05:58:07.957Z,21.17
2017-05-29T05:58:48.496Z,21.35
2017-05-29T05:59:29.025Z,21.37
2017-05-29T06:00:09.554Z,21.32
2017-05-29T06:00:50.090Z,21.31
2017-05-29T06:01:30.631Z,21.46
2017-05-29T06:02:11.171Z,21.42
2017-05-29T06:02:51.712Z,21.44
2017-05-29T06:03:32.252Z,21.47
2017-05-29T06:04:12.798Z,21.52
2017-05-29T06:04:53.339Z,21.54
2017-05-29T06:05:33.856Z,21.58
2017-05-29T06:06:14.399Z,21.64
2017-05-29T06:06:54.952Z,21.58
2017-05-29T06:07:35.485Z,21.56
2017-05-29T06:08:16.029Z,21.68
2017-05-29T06:08:56.570Z,21.64
2017-05-29T06:09:37.112Z,21.75
2017-05-29T06:10:17.644Z,21.75
2017-05-29T06:10:58.167Z,21.72
2017-05-29T06:11:38.700Z,21.79
2017-05-29T06:12:19.235Z,21.86
2017-05-29T06:12:59.776Z,21.92
2017-05-29T06:13:40.325Z,21.99
2017-05-29T06:14:20.868Z,21.94
2017-05-29T06:15:01.414Z,22
2017-05-29T06:15:41.958Z,22.05
2017-05-29T06:16:22.499Z,22.09
2017-05-29T06:17:03.040Z,22.05
2017-05-29T06:17:43.577Z,22.18
2017-05-29T06:18:24.113Z,22.17
2017-05-29T06:19:04.667Z,22.24
2017-05-29T06:19:45.204Z,22.25
2017-05-29T06:20:25.744Z,22.22
2017-05-29T06:21:06.280Z,22.31
2017-05-29T06:21:46.821Z,22.35
2017-05-29T06:22:27.373Z,22.45
2017-05-29T06:23:07.919Z,22.47
2017-05-29T06:23:48.454Z,22.4
2017-05-29T06:24:28.995Z,22.46
2017-05-29T06:25:09.528Z,22.49
2017-05-29T06:25:50.062Z,22.49
2017-05-29T06:26:30.593Z,22.52
2017-05-29T06:27:11.143Z,22.52
2017-05-29T06:27:51.673Z,22.62
2017-05-29T06:28:32.215Z,22.64
2017-05-29T06:29:12.735Z,22.62
2017-05-29T06:29:53.278Z,22.79
2017-05-29T06:30:33.819Z,22.72
2017-05-29T06:31:14.372Z,22.86
2017-05-29T06:31:54.906Z,22.8
2017-05-29T06:32:35.454Z,22.83
2017-05-29T06:33:16.002Z,22.91
2017-05-29T06:33:56.557Z,22.79
2017-05-29T06:34:37.105Z,22.83
2017-05-29T06:35:17.659Z,22.91
2017-05-29T06:35:58.191Z,22.91
2017-05-29T06:36:38.731Z,23
2017-05-29T06:37:19.282Z,22.97
2017-05-29T06:37:59.819Z,22.98
2017-05-29T06:38:40.366Z,23.04
2017-05-29T06:39:20.916Z,22.98
2017-05-29T06:40:01.448Z,23
2017-05-29T06:40:41.997Z,23.15
2017-05-29T06:41:22.550Z,23.04
2017-05-29T06:42:03.107Z,23.13
2017-05-29T06:42:43.632Z,23.13
2017-05-29T06:43:24.181Z,23.17
2017-05-29T06:44:04.723Z,23.1
2017-05-29T06:44:45.264Z,23.13
2017-05-29T06:45:25.812Z,23.25
2017-05-29T06:46:06.407Z,23.22
2017-05-29T06:46:46.890Z,23.2
2017-05-29T06:47:27.434Z,23.2
2017-05-29T06:48:07.973Z,23.32
2017-05-29T06:48:48.509Z,23.19
2017-05-29T06:49:29.057Z,23.2
2017-05-29T06:50:09.602Z,23.22
2017-05-29T06:50:50.144Z,23.23
2017-05-29T06:51:30.690Z,23.31
2017-05-29T06:52:11.288Z,23.27
2017-05-29T06:52:51.759Z,23.32
2017-05-29T06:53:32.303Z,23.35
2017-05-29T06:54:12.839Z,23.39
2017-05-29T06:54:53.378Z,23.39
2017-05-29T06:55:33.922Z,23.47
2017-05-29T06:56:14.498Z,23.58
2017-05-29T06:56:54.982Z,23.55
2017-05-29T06:57:35.538Z,23.63
2017-05-29T06:58:16.085Z,23.65
2017-05-29T06:58:56.630Z,23.66
2017-05-29T06:59:37.177Z,23.72
2017-05-29T07:00:17.724Z,23.73
2017-05-29T07:00:58.275Z,23.72
2017-05-29T07:01:38.825Z,23.75
2017-05-29T07:02:19.379Z,23.73
2017-05-29T07:02:59.923Z,23.83
2017-05-29T07:03:40.472Z,23.87
2017-05-29T07:04:21.019Z,23.93
2017-05-29T07:05:01.558Z,23.95
2017-05-29T07:05:42.101Z,23.94
2017-05-29T07:06:22.647Z,23.97
2017-05-29T07:07:03.195Z,23.95
2017-05-29T07:07:43.739Z,24.02
2017-05-29T07:08:24.281Z,24.06
2017-05-29T07:09:04.830Z,24.16
2017-05-29T07:09:45.379Z,24.09
2017-05-29T07:10:25.926Z,24.18
2017-05-29T07:11:06.476Z,24.3
2017-05-29T07:11:47.017Z,24.32
2017-05-29T07:12:27.571Z,24.43
2017-05-29T07:13:08.103Z,24.43
2017-05-29T07:13:48.640Z,24.55
2017-05-29T07:14:29.192Z,24.58
2017-05-29T07:15:09.734Z,24.57
2017-05-29T07:15:50.284Z,24.55
2017-05-29T07:16:30.831Z,24.55
2017-05-29T07:17:11.374Z,24.6
2017-05-29T07:17:51.925Z,24.55
2017-05-29T07:18:32.475Z,24.55
2017-05-29T07:19:13.029Z,24.6
2017-05-29T07:19:53.557Z,24.58
2017-05-29T07:20:34.111Z,24.6
2017-05-29T07:21:14.654Z,24.64
2017-05-29T07:21:55.198Z,24.58
2017-05-29T07:22:35.756Z,24.6
2017-05-29T07:23:16.313Z,24.65
2017-05-29T07:23:56.867Z,24.68
2017-05-29T07:24:37.417Z,24.73
2017-05-29T07:25:17.953Z,24.65
2017-05-29T07:25:58.501Z,24.76
2017-05-29T07:26:39.050Z,24.9
2017-05-29T07:27:19.589Z,24.91
2017-05-29T07:28:00.133Z,24.99
2017-05-29T07:28:40.685Z,25.13
2017-05-29T07:29:21.222Z,25.13
2017-05-29T07:30:01.776Z,25.09
2017-05-29T07:30:42.316Z,25.08
2017-05-29T07:31:22.865Z,25.15
2017-05-29T07:32:03.424Z,25.2
2017-05-29T07:32:43.975Z,25.36
2017-05-29T07:33:24.517Z,25.27
2017-05-29T07:34:05.067Z,25.39
2017-05-29T07:34:45.624Z,25.27
2017-05-29T07:35:26.156Z,25.28
2017-05-29T07:36:06.698Z,25.23
2017-05-29T07:36:47.247Z,25.23
2017-05-29T07:37:27.788Z,25.23
2017-05-29T07:38:08.343Z,25.15
2017-05-29T07:38:48.891Z,25.09
2017-05-29T07:39:29.458Z,25.15
2017-05-29T07:40:09.980Z,25.25
2017-05-29T07:40:50.518Z,25.27
2017-05-29T07:41:31.069Z,25.3
2017-05-29T07:42:11.618Z,25.23
2017-05-29T07:42:52.154Z,25.36
2017-05-29T07:43:32.701Z,25.35
2017-05-29T07:44:13.252Z,25.38
2017-05-29T07:44:53.870Z,25.43
2017-05-29T07:45:34.436Z,25.5
2017-05-29T07:46:14.953Z,25.55
2017-05-29T07:46:55.487Z,25.7
2017-05-29T07:47:36.036Z,25.8
2017-05-29T07:48:16.584Z,25.99
2017-05-29T07:48:57.130Z,25.97
2017-05-29T07:49:37.670Z,26.05
2017-05-29T07:50:18.216Z,26.09
2017-05-29T07:50:58.769Z,26.12
2017-05-29T07:51:39.317Z,26.15
2017-05-29T07:52:19.928Z,26.12
2017-05-29T07:53:00.479Z,26.2
2017-05-29T07:53:41.027Z,26.17
2017-05-29T07:54:21.584Z,26.18
2017-05-29T07:55:02.131Z,26.12
2017-05-29T07:55:42.685Z,26.17
2017-05-29T07:56:23.230Z,26.3
2017-05-29T07:57:03.782Z,26.28
2017-05-29T07:57:44.338Z,26.44
2017-05-29T07:58:24.894Z,26.48
2017-05-29T07:59:05.444Z,26.55
2017-05-29T07:59:45.993Z,26.67
2017-05-29T08:00:26.547Z,26.76
2017-05-29T08:01:07.087Z,26.85
2017-05-29T08:01:47.626Z,27
2017-05-29T08:02:28.182Z,26.97
2017-05-29T08:03:08.740Z,26.94
2017-05-29T08:03:49.280Z,27
2017-05-29T08:04:29.802Z,26.94
2017-05-29T08:05:10.350Z,27.03
2017-05-29T08:05:50.901Z,27.21
2017-05-29T08:06:31.442Z,27.21
2017-05-29T08:07:11.981Z,27.4
2017-05-29T08:07:52.537Z,27.54
2017-05-29T08:08:33.100Z,27.69
2017-05-29T08:09:13.653Z,27.77
2017-05-29T08:09:54.186Z,27.94
2017-05-29T08:10:34.735Z,27.96
2017-05-29T08:11:15.291Z,28.03
2017-05-29T08:11:55.829Z,28.17
2017-05-29T08:12:36.405Z,28.11
2017-05-29T08:13:16.957Z,28.04
2017-05-29T08:13:57.501Z,27.96
2017-05-29T08:14:38.051Z,27.94
2017-05-29T08:15:18.594Z,27.92
2017-05-29T08:15:59.154Z,27.92
2017-05-29T08:16:39.706Z,27.92
2017-05-29T08:17:20.258Z,27.94
2017-05-29T08:18:00.805Z,27.96
2017-05-29T08:18:41.448Z,27.84
2017-05-29T08:19:22.006Z,27.96
2017-05-29T08:20:02.549Z,28.07
2017-05-29T08:20:43.101Z,28.06
2017-05-29T08:21:23.653Z,28.24
2017-05-29T08:22:04.206Z,28.12
2017-05-29T08:22:44.763Z,28.18
2017-05-29T08:23:25.319Z,28.21
2017-05-29T08:24:05.864Z,28.17
2017-05-29T08:24:46.454Z,28.17
2017-05-29T08:25:27.004Z,28.25
2017-05-29T08:26:07.548Z,28.41
2017-05-29T08:26:48.106Z,28.52
2017-05-29T08:27:28.657Z,28.7
2017-05-29T08:28:09.188Z,28.93
2017-05-29T08:28:49.739Z,29.15
2017-05-29T08:29:30.297Z,29.41
2017-05-29T08:30:10.847Z,29.53
2017-05-29T08:30:51.392Z,29.79
2017-05-29T08:31:31.930Z,30.05
2017-05-29T08:32:12.469Z,30.05
2017-05-29T08:32:53.028Z,30.16
2017-05-29T08:33:33.583Z,30.19
2017-05-29T08:34:14.124Z,30.45
2017-05-29T08:34:54.670Z,30.61
2017-05-29T08:35:35.228Z,30.83
2017-05-29T08:36:15.786Z,30.99
2017-05-29T08:36:56.326Z,31.12
2017-05-29T08:37:36.877Z,31.01
2017-05-29T08:38:17.438Z,30.83
2017-05-29T08:38:57.990Z,30.82
2017-05-29T08:39:38.531Z,30.86
2017-05-29T08:40:19.086Z,30.92
2017-05-29T08:40:59.639Z,31.02
2017-05-29T08:41:40.195Z,31.12
2017-05-29T08:42:20.746Z,31.2
2017-05-29T08:43:01.300Z,31.51
2017-05-29T08:43:41.855Z,31.72
2017-05-29T08:44:22.402Z,31.81
2017-05-29T08:45:02.957Z,32.06
2017-05-29T08:45:43.509Z,32.08
2017-05-29T08:46:24.093Z,31.99
2017-05-29T08:47:04.648Z,32
2017-05-29T08:47:45.207Z,32.13
2017-05-29T08:48:25.761Z,32.11
2017-05-29T08:49:06.319Z,32.26
2017-05-29T08:49:46.870Z,32.23
2017-05-29T08:50:27.428Z,32.3
2017-05-29T08:51:07.985Z,32.29
2017-05-29T08:51:48.527Z,32.3
2017-05-29T08:52:29.083Z,32.35
2017-05-29T08:53:09.639Z,32.41
2017-05-29T08:53:50.190Z,32.48